Terminal Aerodrome Forecast
Issued by NWS Midland/Odessa, TX

Home | Current Version | Previous Version | Text Only | Print | Product List | Glossary On
Versions: 1 2 3 4 5 6 7 8 9 10 11 12 13 14 15 16 17 18 19 20 21 22 23 24 25
000
FTUS44 KMAF 192300
TAFMAF
TAF
KMAF 192320Z 2000/2024 08003KT P6SM SKC
     FM200500 09004KT 5SM BR OVC008
     FM201000 11004KT 1SM BR OVC003
     FM201700 14005KT P6SM OVC010
     FM202100 18008KT P6SM SCT200=

USA.gov is the U.S. government's official web portal to all federal, state and local government web resources and services.